Time,TemperatureF,DewpointF,PressureIn,WindDirection,WindDirectionDegrees,WindSpeedMPH,WindSpeedGustMPH,Humidity,HourlyPrecipIn,Conditions,Clouds,dailyrainin,SoftwareType,DateUTC
2013-07-11 00:00:00,66.7,51.5,29.68,West,275,0.0,2.0,58,0.00,,,0.00,Wunderground v.1.15,2013-07-11 06:00:00,
2013-07-11 00:10:00,65.9,50.7,29.68,West,275,0.0,2.0,58,0.00,,,0.00,Wunderground v.1.15,2013-07-11 06:10:00,
2013-07-11 00:15:00,65.9,51.2,29.69,West,275,1.0,2.0,59,0.00,,,0.00,Wunderground v.1.15,2013-07-11 06:15:00,
2013-07-11 00:20:00,66.1,50.4,29.69,West,275,0.0,2.0,57,0.00,,,0.00,Wunderground v.1.15,2013-07-11 06:20:00,
2013-07-11 00:25:00,66.5,50.3,29.69,West,275,0.0,2.0,56,0.00,,,0.00,Wunderground v.1.15,2013-07-11 06:25:00,
2013-07-11 00:35:00,66.7,50.0,29.70,West,273,1.0,2.0,55,0.00,,,0.00,Wunderground v.1.15,2013-07-11 06:35:00,
2013-07-11 00:40:00,67.0,50.3,29.70,West,273,0.0,2.0,55,0.00,,,0.00,Wunderground v.1.15,2013-07-11 06:40:00,
2013-07-11 00:45:00,67.2,50.0,29.71,West,273,0.0,2.0,54,0.00,,,0.00,Wunderground v.1.15,2013-07-11 06:45:00,
2013-07-11 00:50:00,66.5,50.3,29.70,West,273,0.0,2.0,56,0.00,,,0.00,Wunderground v.1.15,2013-07-11 06:50:00,
2013-07-11 00:55:00,65.9,50.2,29.69,West,279,1.0,2.0,57,0.00,,,0.00,Wunderground v.1.15,2013-07-11 06:55:00,
2013-07-11 01:00:00,66.1,49.5,29.69,West,279,1.0,1.0,55,0.00,,,0.00,Wunderground v.1.15,2013-07-11 07:00:00,
2013-07-11 01:10:00,65.8,51.5,29.68,West,279,0.0,2.0,60,0.00,,,0.00,Wunderground v.1.15,2013-07-11 07:10:00,
2013-07-11 01:20:00,63.9,52.3,29.69,West,279,0.0,2.0,66,0.00,,,0.00,Wunderground v.1.15,2013-07-11 07:20:00,
2013-07-11 01:25:00,63.6,51.6,29.70,West,279,0.0,2.0,65,0.00,,,0.00,Wunderground v.1.15,2013-07-11 07:25:00,
2013-07-11 01:30:00,63.5,50.2,29.69,West,279,0.0,2.0,62,0.00,,,0.00,Wunderground v.1.15,2013-07-11 07:30:00,
2013-07-11 01:35:00,64.3,50.1,29.69,West,279,0.0,2.0,60,0.00,,,0.00,Wunderground v.1.15,2013-07-11 07:35:00,
2013-07-11 01:40:00,64.0,50.7,29.69,West,279,0.0,2.0,62,0.00,,,0.00,Wunderground v.1.15,2013-07-11 07:40:00,
2013-07-11 01:50:00,63.5,50.2,29.69,West,279,0.0,2.0,62,0.00,,,0.00,Wunderground v.1.15,2013-07-11 07:50:00,
2013-07-11 01:55:00,63.7,50.9,29.69,West,279,0.0,2.0,63,0.00,,,0.00,Wunderground v.1.15,2013-07-11 07:55:00,
2013-07-11 02:00:00,63.6,50.3,29.69,West,279,0.0,2.0,62,0.00,,,0.00,Wunderground v.1.15,2013-07-11 08:00:00,
2013-07-11 02:10:00,62.4,50.5,29.69,West,279,0.0,2.0,65,0.00,,,0.00,Wunderground v.1.15,2013-07-11 08:10:00,
2013-07-11 02:15:00,62.5,51.8,29.69,West,279,0.0,2.0,68,0.00,,,0.00,Wunderground v.1.15,2013-07-11 08:15:00,
2013-07-11 02:20:00,62.6,51.9,29.69,West,279,0.0,2.0,68,0.00,,,0.00,Wunderground v.1.15,2013-07-11 08:20:00,
2013-07-11 02:25:00,62.6,52.3,29.69,West,279,0.0,2.0,69,0.00,,,0.00,Wunderground v.1.15,2013-07-11 08:25:00,
2013-07-11 02:30:00,62.9,52.6,29.68,West,279,0.0,2.0,69,0.00,,,0.00,Wunderground v.1.15,2013-07-11 08:30:00,
2013-07-11 02:40:00,63.7,52.9,29.68,West,279,0.0,2.0,68,0.00,,,0.00,Wunderground v.1.15,2013-07-11 08:40:00,
2013-07-11 02:45:00,63.1,52.4,29.68,West,279,0.0,2.0,68,0.00,,,0.00,Wunderground v.1.15,2013-07-11 08:45:00,
2013-07-11 02:50:00,62.9,51.8,29.68,West,279,0.0,2.0,67,0.00,,,0.00,Wunderground v.1.15,2013-07-11 08:50:00,
2013-07-11 03:00:00,61.5,52.0,29.68,West,279,0.0,2.0,71,0.00,,,0.00,Wunderground v.1.15,2013-07-11 09:00:00,
2013-07-11 03:05:00,60.7,52.0,29.68,West,279,0.0,2.0,73,0.00,,,0.00,Wunderground v.1.15,2013-07-11 09:05:00,
2013-07-11 03:10:00,60.7,51.2,29.68,West,279,0.0,2.0,71,0.00,,,0.00,Wunderground v.1.15,2013-07-11 09:10:00,
2013-07-11 03:15:00,61.4,51.5,29.68,West,279,0.0,2.0,70,0.00,,,0.00,Wunderground v.1.15,2013-07-11 09:15:00,
2013-07-11 03:25:00,61.2,51.3,29.68,West,279,0.0,2.0,70,0.00,,,0.00,Wunderground v.1.15,2013-07-11 09:25:00,
2013-07-11 08:26:00,60.1,52.5,29.71,West,277,0.0,2.0,76,0.00,,,0.00,Wunderground v.1.15,2013-07-11 14:26:00,
2013-07-11 08:40:00,60.8,53.5,29.70,West,277,0.0,2.0,77,0.00,,,0.00,Wunderground v.1.15,2013-07-11 14:40:00,
2013-07-11 08:45:00,61.5,53.9,29.70,West,277,0.0,2.0,76,0.00,,,0.00,Wunderground v.1.15,2013-07-11 14:45:00,
2013-07-11 08:50:00,62.4,54.4,29.70,West,277,0.0,2.0,75,0.00,,,0.00,Wunderground v.1.15,2013-07-11 14:50:00,
2013-07-11 09:00:00,62.8,54.0,29.70,West,277,0.0,2.0,73,0.00,,,0.00,Wunderground v.1.15,2013-07-11 15:00:00,
2013-07-11 09:10:00,63.4,53.4,29.69,SSE,151,0.0,2.0,70,0.00,,,0.00,Wunderground v.1.15,2013-07-11 15:10:00,
2013-07-11 09:20:00,63.3,54.5,29.69,SSE,150,0.0,2.0,73,0.00,,,0.00,Wunderground v.1.15,2013-07-11 15:20:00,
2013-07-11 09:25:00,63.1,54.7,29.69,SE,135,0.0,2.0,74,0.00,,,0.00,Wunderground v.1.15,2013-07-11 15:25:00,
2013-07-11 09:30:00,64.2,54.2,29.69,SE,135,0.0,2.0,70,0.00,,,0.00,Wunderground v.1.15,2013-07-11 15:30:00,
2013-07-11 09:45:00,71.1,49.8,29.68,NNE,22,1.0,2.0,47,0.00,,,0.00,Wunderground v.1.15,2013-07-11 15:45:00,
2013-07-11 09:50:00,72.3,47.3,29.68,SSE,158,2.0,2.0,41,0.00,,,0.00,Wunderground v.1.15,2013-07-11 15:50:00,
2013-07-11 09:55:00,72.8,46.4,29.68,South,186,3.0,6.0,39,0.00,,,0.00,Wunderground v.1.15,2013-07-11 15:55:00,
2013-07-11 10:00:00,73.5,46.3,29.68,SSE,161,2.0,2.0,38,0.00,,,0.00,Wunderground v.1.15,2013-07-11 16:00:00,
2013-07-11 10:05:00,73.9,44.5,29.68,South,170,2.0,4.0,35,0.00,,,0.00,Wunderground v.1.15,2013-07-11 16:05:00,
2013-07-11 10:10:00,73.9,46.7,29.68,SSW,196,3.0,3.0,38,0.00,,,0.00,Wunderground v.1.15,2013-07-11 16:10:00,
2013-07-11 10:20:00,74.2,43.2,29.68,South,181,3.0,3.0,33,0.00,,,0.00,Wunderground v.1.15,2013-07-11 16:20:00,
2013-07-11 10:25:00,74.3,44.9,29.68,SE,131,3.0,3.0,35,0.00,,,0.00,Wunderground v.1.15,2013-07-11 16:25:00,
2013-07-11 10:35:00,74.3,43.3,29.68,SW,217,3.0,3.0,33,0.00,,,0.00,Wunderground v.1.15,2013-07-11 16:35:00,
2013-07-11 10:40:00,74.6,42.8,29.68,South,180,3.0,3.0,32,0.00,,,0.00,Wunderground v.1.15,2013-07-11 16:40:00,
2013-07-11 10:45:00,75.1,44.0,29.68,SSE,161,3.0,4.0,33,0.00,,,0.00,Wunderground v.1.15,2013-07-11 16:45:00,
2013-07-11 10:55:00,75.3,42.6,29.67,SSE,156,3.0,4.0,31,0.00,,,0.00,Wunderground v.1.15,2013-07-11 16:55:00,
2013-07-11 11:05:00,75.3,43.4,29.67,ESE,121,4.0,5.0,32,0.00,,,0.00,Wunderground v.1.15,2013-07-11 17:05:00,
2013-07-11 11:10:00,75.5,44.4,29.68,South,169,4.0,4.0,33,0.00,,,0.00,Wunderground v.1.15,2013-07-11 17:10:00,
2013-07-11 11:15:00,75.7,42.1,29.68,SE,137,4.0,4.0,30,0.00,,,0.00,Wunderground v.1.15,2013-07-11 17:15:00,
2013-07-11 11:25:00,76.1,42.4,29.67,SE,128,3.0,6.0,30,0.00,,,0.00,Wunderground v.1.15,2013-07-11 17:25:00,
2013-07-11 11:30:00,76.4,41.8,29.67,South,178,4.0,5.0,29,0.00,,,0.00,Wunderground v.1.15,2013-07-11 17:30:00,
2013-07-11 11:35:00,76.4,39.9,29.67,SSE,163,5.0,9.0,27,0.00,,,0.00,Wunderground v.1.15,2013-07-11 17:35:00,
2013-07-11 11:40:00,76.2,39.8,29.67,SSW,203,5.0,5.0,27,0.00,,,0.00,Wunderground v.1.15,2013-07-11 17:40:00,
2013-07-11 11:45:00,76.5,41.0,29.67,South,178,5.0,5.0,28,0.00,,,0.00,Wunderground v.1.15,2013-07-11 17:45:00,
2013-07-11 11:55:00,77.2,40.6,29.67,South,180,4.0,5.0,27,0.00,,,0.00,Wunderground v.1.15,2013-07-11 17:55:00,
2013-07-11 12:00:00,77.5,40.9,29.67,South,189,4.0,4.0,27,0.00,,,0.00,Wunderground v.1.15,2013-07-11 18:00:00,
2013-07-11 12:05:00,77.0,40.4,29.67,SSW,209,4.0,4.0,27,0.00,,,0.00,Wunderground v.1.15,2013-07-11 18:05:00,
2013-07-11 12:10:00,76.7,39.2,29.67,South,186,5.0,5.0,26,0.00,,,0.00,Wunderground v.1.15,2013-07-11 18:10:00,
2013-07-11 12:15:00,77.2,42.5,29.67,East,94,3.0,5.0,29,0.00,,,0.00,Wunderground v.1.15,2013-07-11 18:15:00,
2013-07-11 12:25:00,77.7,40.1,29.67,South,177,2.0,4.0,26,0.00,,,0.00,Wunderground v.1.15,2013-07-11 18:25:00,
2013-07-11 12:30:00,77.3,38.7,29.67,SW,234,3.0,3.0,25,0.00,,,0.00,Wunderground v.1.15,2013-07-11 18:30:00,
2013-07-11 12:35:00,78.0,40.3,29.67,South,174,3.0,3.0,26,0.00,,,0.00,Wunderground v.1.15,2013-07-11 18:35:00,
2013-07-11 12:40:00,78.1,42.3,29.67,SW,220,2.0,2.0,28,0.00,,,0.00,Wunderground v.1.15,2013-07-11 18:40:00,
2013-07-11 12:45:00,77.7,41.0,29.67,ENE,65,2.0,2.0,27,0.00,,,0.00,Wunderground v.1.15,2013-07-11 18:45:00,
2013-07-11 12:55:00,77.5,38.9,29.67,WSW,238,2.0,2.0,25,0.00,,,0.00,Wunderground v.1.15,2013-07-11 18:55:00,
2013-07-11 13:00:00,77.6,39.0,29.67,South,184,3.0,3.0,25,0.00,,,0.00,Wunderground v.1.15,2013-07-11 19:00:00,
2013-07-11 13:10:00,76.9,37.3,29.68,SSE,162,3.0,3.0,24,0.00,,,0.00,Wunderground v.1.15,2013-07-11 19:10:00,
2013-07-11 13:15:00,77.0,37.4,29.68,SSE,148,3.0,3.0,24,0.00,,,0.00,Wunderground v.1.15,2013-07-11 19:15:00,
2013-07-11 13:25:00,78.0,38.3,29.68,NE,49,4.0,4.0,24,0.00,,,0.00,Wunderground v.1.15,2013-07-11 19:25:00,
2013-07-11 13:30:00,77.6,37.9,29.68,East,89,4.0,4.0,24,0.00,,,0.00,Wunderground v.1.15,2013-07-11 19:30:00,
2013-07-11 13:35:00,77.9,38.2,29.68,West,261,3.0,4.0,24,0.00,,,0.00,Wunderground v.1.15,2013-07-11 19:35:00,
2013-07-11 13:40:00,78.0,40.3,29.68,SSE,164,4.0,9.0,26,0.00,,,0.00,Wunderground v.1.15,2013-07-11 19:40:00,
2013-07-11 13:50:00,79.0,39.1,29.68,West,275,5.0,5.0,24,0.00,,,0.00,Wunderground v.1.15,2013-07-11 19:50:00,
2013-07-11 14:00:00,78.7,38.9,29.68,SSE,167,4.0,4.0,24,0.00,,,0.00,Wunderground v.1.15,2013-07-11 20:00:00,
2013-07-11 14:05:00,78.8,37.9,29.68,SW,223,4.0,4.0,23,0.00,,,0.00,Wunderground v.1.15,2013-07-11 20:05:00,
2013-07-11 14:10:00,78.6,39.8,29.68,SE,132,3.0,8.0,25,0.00,,,0.00,Wunderground v.1.15,2013-07-11 20:10:00,
2013-07-11 14:20:00,78.9,39.0,29.68,ENE,76,4.0,4.0,24,0.00,,,0.00,Wunderground v.1.15,2013-07-11 20:20:00,
2013-07-11 14:25:00,78.8,38.9,29.68,South,183,4.0,4.0,24,0.00,,,0.00,Wunderground v.1.15,2013-07-11 20:25:00,
2013-07-11 14:30:00,79.0,40.2,29.67,NE,49,4.0,4.0,25,0.00,,,0.00,Wunderground v.1.15,2013-07-11 20:30:00,
2013-07-11 14:40:00,79.1,40.2,29.68,North,5,3.0,4.0,25,0.00,,,0.00,Wunderground v.1.15,2013-07-11 20:40:00,
2013-07-11 14:50:00,79.4,41.5,29.67,South,190,3.0,4.0,26,0.00,,,0.00,Wunderground v.1.15,2013-07-11 20:50:00,
2013-07-11 14:55:00,79.7,42.8,29.67,SSE,165,3.0,4.0,27,0.00,,,0.00,Wunderground v.1.15,2013-07-11 20:55:00,
2013-07-11 15:05:00,79.8,40.8,29.67,North,10,4.0,4.0,25,0.00,,,0.00,Wunderground v.1.15,2013-07-11 21:05:00,
2013-07-11 15:10:00,80.2,39.0,29.67,ESE,106,3.0,4.0,23,0.00,,,0.00,Wunderground v.1.15,2013-07-11 21:10:00,
2013-07-11 15:15:00,79.8,40.8,29.67,SE,134,3.0,5.0,25,0.00,,,0.00,Wunderground v.1.15,2013-07-11 21:15:00,
2013-07-11 15:20:00,80.2,40.1,29.67,East,99,4.0,4.0,24,0.00,,,0.00,Wunderground v.1.15,2013-07-11 21:20:00,
2013-07-11 15:25:00,80.6,40.5,29.67,SSE,161,3.0,8.0,24,0.00,,,0.00,Wunderground v.1.15,2013-07-11 21:25:00,
2013-07-11 15:30:00,81.4,38.9,29.67,South,180,4.0,4.0,22,0.00,,,0.00,Wunderground v.1.15,2013-07-11 21:30:00,
2013-07-11 15:35:00,79.9,39.9,29.67,SSW,196,4.0,4.0,24,0.00,,,0.00,Wunderground v.1.15,2013-07-11 21:35:00,
2013-07-11 15:45:00,81.2,38.7,29.67,East,98,3.0,5.0,22,0.00,,,0.00,Wunderground v.1.15,2013-07-11 21:45:00,
2013-07-11 15:50:00,79.9,38.8,29.67,ESE,117,4.0,6.0,23,0.00,,,0.00,Wunderground v.1.15,2013-07-11 21:50:00,
2013-07-11 16:00:00,80.8,39.5,29.67,NW,309,3.0,3.0,23,0.00,,,0.00,Wunderground v.1.15,2013-07-11 22:00:00,
2013-07-11 16:05:00,80.7,39.4,29.67,East,90,4.0,4.0,23,0.00,,,0.00,Wunderground v.1.15,2013-07-11 22:05:00,
2013-07-11 16:10:00,80.5,40.4,29.67,South,173,4.0,4.0,24,0.00,,,0.00,Wunderground v.1.15,2013-07-11 22:10:00,
2013-07-11 16:15:00,80.4,38.1,29.67,SE,131,4.0,5.0,22,0.00,,,0.00,Wunderground v.1.15,2013-07-11 22:15:00,
2013-07-11 16:20:00,80.1,41.1,29.67,NNE,13,3.0,3.0,25,0.00,,,0.00,Wunderground v.1.15,2013-07-11 22:20:00,
2013-07-11 16:25:00,80.9,42.8,29.66,South,178,3.0,3.0,26,0.00,,,0.00,Wunderground v.1.15,2013-07-11 22:25:00,
2013-07-11 16:35:00,80.0,38.9,29.67,SE,133,4.0,6.0,23,0.00,,,0.00,Wunderground v.1.15,2013-07-11 22:35:00,
2013-07-11 16:40:00,79.5,39.5,29.67,SSW,198,4.0,7.0,24,0.00,,,0.00,Wunderground v.1.15,2013-07-11 22:40:00,
2013-07-11 16:45:00,79.8,39.8,29.67,ENE,65,4.0,7.0,24,0.00,,,0.00,Wunderground v.1.15,2013-07-11 22:45:00,
2013-07-11 16:50:00,79.7,37.5,29.67,SSW,193,4.0,4.0,22,0.00,,,0.00,Wunderground v.1.15,2013-07-11 22:50:00,
2013-07-11 16:55:00,80.1,36.6,29.67,SSE,150,3.0,9.0,21,0.00,,,0.00,Wunderground v.1.15,2013-07-11 22:55:00,
2013-07-11 17:00:00,79.5,36.1,29.67,NNW,331,4.0,4.0,21,0.00,,,0.00,Wunderground v.1.15,2013-07-11 23:00:00,
2013-07-11 17:10:00,79.4,38.4,29.67,SSE,150,4.0,5.0,23,0.00,,,0.00,Wunderground v.1.15,2013-07-11 23:10:00,
2013-07-11 17:20:00,79.2,38.2,29.67,SSE,148,3.0,6.0,23,0.00,,,0.00,Wunderground v.1.15,2013-07-11 23:20:00,
2013-07-11 17:25:00,79.2,37.1,29.67,SSE,157,4.0,6.0,22,0.00,,,0.00,Wunderground v.1.15,2013-07-11 23:25:00,
2013-07-11 17:30:00,78.8,37.9,29.67,ESE,109,4.0,4.0,23,0.00,,,0.00,Wunderground v.1.15,2013-07-11 23:30:00,
2013-07-11 17:35:00,78.5,35.3,29.66,SSW,211,4.0,4.0,21,0.00,,,0.00,Wunderground v.1.15,2013-07-11 23:35:00,
2013-07-11 17:45:00,78.2,37.4,29.67,South,178,4.0,8.0,23,0.00,,,0.00,Wunderground v.1.15,2013-07-11 23:45:00,
2013-07-11 17:50:00,78.2,36.2,29.67,East,94,4.0,4.0,22,0.00,,,0.00,Wunderground v.1.15,2013-07-11 23:50:00,
2013-07-11 18:00:00,78.0,37.2,29.66,SE,131,3.0,4.0,23,0.00,,,0.00,Wunderground v.1.15,2013-07-12 00:00:00,
2013-07-11 18:05:00,77.8,37.0,29.66,SSE,157,3.0,4.0,23,0.00,,,0.00,Wunderground v.1.15,2013-07-12 00:05:00,
2013-07-11 18:10:00,77.6,35.7,29.66,NE,42,2.0,2.0,22,0.00,,,0.00,Wunderground v.1.15,2013-07-12 00:10:00,
2013-07-11 18:15:00,77.5,36.8,29.66,SW,221,2.0,3.0,23,0.00,,,0.00,Wunderground v.1.15,2013-07-12 00:15:00,
2013-07-11 18:20:00,77.3,36.6,29.66,SSE,147,3.0,3.0,23,0.00,,,0.00,Wunderground v.1.15,2013-07-12 00:20:00,
2013-07-11 18:25:00,77.0,37.4,29.66,South,170,3.0,3.0,24,0.00,,,0.00,Wunderground v.1.15,2013-07-12 00:25:00,
2013-07-11 18:30:00,77.0,36.3,29.66,SSE,159,4.0,4.0,23,0.00,,,0.00,Wunderground v.1.15,2013-07-12 00:30:00,
2013-07-11 18:35:00,76.8,36.2,29.66,South,174,4.0,4.0,23,0.00,,,0.00,Wunderground v.1.15,2013-07-12 00:35:00,
2013-07-11 18:45:00,75.7,37.4,29.66,ESE,111,2.0,3.0,25,0.00,,,0.00,Wunderground v.1.15,2013-07-12 00:45:00,
2013-07-11 18:50:00,75.2,36.9,29.66,SSW,208,2.0,2.0,25,0.00,,,0.00,Wunderground v.1.15,2013-07-12 00:50:00,
2013-07-11 18:55:00,75.0,37.8,29.66,South,184,1.0,2.0,26,0.00,,,0.00,Wunderground v.1.15,2013-07-12 00:55:00,
2013-07-11 19:00:00,75.2,37.9,29.66,SW,221,2.0,2.0,26,0.00,,,0.00,Wunderground v.1.15,2013-07-12 01:00:00,
2013-07-11 19:05:00,75.3,39.0,29.66,SSW,211,2.0,3.0,27,0.00,,,0.00,Wunderground v.1.15,2013-07-12 01:05:00,
2013-07-11 19:15:00,75.3,39.9,29.66,SSE,168,3.0,3.0,28,0.00,,,0.00,Wunderground v.1.15,2013-07-12 01:15:00,
2013-07-11 19:25:00,74.2,40.8,29.66,ENE,76,1.0,2.0,30,0.00,,,0.00,Wunderground v.1.15,2013-07-12 01:25:00,
2013-07-11 19:30:00,74.4,40.1,29.66,East,90,1.0,2.0,29,0.00,,,0.00,Wunderground v.1.15,2013-07-12 01:30:00,
2013-07-11 19:40:00,74.5,41.0,29.67,SE,138,2.0,4.0,30,0.00,,,0.00,Wunderground v.1.15,2013-07-12 01:40:00,
2013-07-11 19:45:00,74.6,39.3,29.67,South,180,2.0,4.0,28,0.00,,,0.00,Wunderground v.1.15,2013-07-12 01:45:00,
2013-07-11 19:50:00,74.4,38.2,29.67,South,174,2.0,2.0,27,0.00,,,0.00,Wunderground v.1.15,2013-07-12 01:50:00,
2013-07-11 20:00:00,74.4,36.3,29.67,ENE,63,1.0,1.0,25,0.00,,,0.00,Wunderground v.1.15,2013-07-12 02:00:00,
2013-07-11 20:05:00,74.2,35.1,29.67,NE,54,1.0,3.0,24,0.00,,,0.00,Wunderground v.1.15,2013-07-12 02:05:00,
2013-07-11 20:15:00,73.9,31.5,29.68,South,175,2.0,2.0,21,0.00,,,0.00,Wunderground v.1.15,2013-07-12 02:15:00,
2013-07-11 20:20:00,73.4,29.9,29.68,West,264,1.0,1.0,20,0.00,,,0.00,Wunderground v.1.15,2013-07-12 02:20:00,
2013-07-11 20:25:00,73.2,32.1,29.68,South,185,1.0,2.0,22,0.00,,,0.00,Wunderground v.1.15,2013-07-12 02:25:00,
2013-07-11 20:30:00,73.1,29.6,29.68,East,98,1.0,1.0,20,0.00,,,0.00,Wunderground v.1.15,2013-07-12 02:30:00,
2013-07-11 20:40:00,72.4,31.4,29.69,SE,140,1.0,2.0,22,0.00,,,0.00,Wunderground v.1.15,2013-07-12 02:40:00,
2013-07-11 20:45:00,71.7,35.0,29.69,SSW,196,1.0,2.0,26,0.00,,,0.00,Wunderground v.1.15,2013-07-12 02:45:00,
2013-07-11 20:50:00,70.4,34.8,29.69,South,188,1.0,2.0,27,0.00,,,0.00,Wunderground v.1.15,2013-07-12 02:50:00,
2013-07-11 20:55:00,70.4,34.8,29.69,SSE,151,0.0,2.0,27,0.00,,,0.00,Wunderground v.1.15,2013-07-12 02:55:00,
2013-07-11 21:05:00,69.6,35.9,29.69,SSE,159,0.0,2.0,29,0.00,,,0.00,Wunderground v.1.15,2013-07-12 03:05:00,
2013-07-11 21:10:00,68.6,34.2,29.70,SSE,159,0.0,2.0,28,0.00,,,0.00,Wunderground v.1.15,2013-07-12 03:10:00,
2013-07-11 21:15:00,67.9,35.3,29.69,SSE,159,0.0,2.0,30,0.00,,,0.00,Wunderground v.1.15,2013-07-12 03:15:00,
2013-07-11 21:20:00,66.5,36.5,29.69,SSE,159,0.0,2.0,33,0.00,,,0.00,Wunderground v.1.15,2013-07-12 03:20:00,
2013-07-11 21:25:00,65.6,37.9,29.70,SSE,159,0.0,2.0,36,0.00,,,0.00,Wunderground v.1.15,2013-07-12 03:25:00,
2013-07-11 21:35:00,64.6,34.8,29.70,SSE,166,0.0,2.0,33,0.00,,,0.00,Wunderground v.1.15,2013-07-12 03:35:00,
2013-07-11 21:40:00,64.2,35.2,29.70,SSE,166,0.0,2.0,34,0.00,,,0.00,Wunderground v.1.15,2013-07-12 03:40:00,
2013-07-11 21:45:00,63.7,36.9,29.71,SSE,166,0.0,2.0,37,0.00,,,0.00,Wunderground v.1.15,2013-07-12 03:45:00,
2013-07-11 21:50:00,63.0,34.9,29.71,SSE,166,0.0,2.0,35,0.00,,,0.00,Wunderground v.1.15,2013-07-12 03:50:00,
2013-07-11 21:55:00,62.2,36.9,29.71,SSE,166,0.0,2.0,39,0.00,,,0.00,Wunderground v.1.15,2013-07-12 03:55:00,
2013-07-11 22:00:00,61.4,36.2,29.72,SE,132,0.0,2.0,39,0.00,,,0.00,Wunderground v.1.15,2013-07-12 04:00:00,
2013-07-11 22:05:00,61.1,37.2,29.72,WSW,242,0.0,2.0,41,0.00,,,0.00,Wunderground v.1.15,2013-07-12 04:05:00,
2013-07-11 22:10:00,60.6,36.8,29.72,WSW,242,0.0,2.0,41,0.00,,,0.00,Wunderground v.1.15,2013-07-12 04:10:00,
2013-07-11 22:15:00,60.4,37.8,29.73,WSW,242,0.0,2.0,43,0.00,,,0.00,Wunderground v.1.15,2013-07-12 04:15:00,
2013-07-11 22:20:00,60.6,36.8,29.73,WSW,242,0.0,2.0,41,0.00,,,0.00,Wunderground v.1.15,2013-07-12 04:20:00,
2013-07-11 22:25:00,60.6,38.0,29.73,WSW,244,0.0,2.0,43,0.00,,,0.00,Wunderground v.1.15,2013-07-12 04:25:00,
2013-07-11 22:30:00,60.3,37.7,29.74,WSW,242,0.0,2.0,43,0.00,,,0.00,Wunderground v.1.15,2013-07-12 04:30:00,
2013-07-11 22:35:00,60.3,38.3,29.74,WSW,240,0.0,2.0,44,0.00,,,0.00,Wunderground v.1.15,2013-07-12 04:35:00,
2013-07-11 22:40:00,60.0,38.6,29.73,WSW,243,0.0,2.0,45,0.00,,,0.00,Wunderground v.1.15,2013-07-12 04:40:00,
2013-07-11 22:45:00,60.1,39.2,29.73,SSW,211,0.0,2.0,46,0.00,,,0.00,Wunderground v.1.15,2013-07-12 04:45:00,
2013-07-11 22:50:00,59.7,39.4,29.74,SSW,196,0.0,2.0,47,0.00,,,0.00,Wunderground v.1.15,2013-07-12 04:50:00,
2013-07-11 22:55:00,59.3,38.5,29.73,SSE,164,0.0,2.0,46,0.00,,,0.00,Wunderground v.1.15,2013-07-12 04:55:00,
2013-07-11 23:00:00,59.2,39.5,29.74,South,176,0.0,2.0,48,0.00,,,0.00,Wunderground v.1.15,2013-07-12 05:00:00,
2013-07-11 23:05:00,59.6,38.8,29.73,South,188,1.0,2.0,46,0.00,,,0.00,Wunderground v.1.15,2013-07-12 05:05:00,
2013-07-11 23:10:00,59.7,39.4,29.73,SSE,158,1.0,1.0,47,0.00,,,0.00,Wunderground v.1.15,2013-07-12 05:10:00,
2013-07-11 23:15:00,59.7,38.9,29.73,SSE,158,0.0,2.0,46,0.00,,,0.00,Wunderground v.1.15,2013-07-12 05:15:00,
2013-07-11 23:20:00,59.9,39.6,29.73,SSE,162,0.0,2.0,47,0.00,,,0.00,Wunderground v.1.15,2013-07-12 05:20:00,
2013-07-11 23:25:00,60.5,37.3,29.73,SSE,168,0.0,2.0,42,0.00,,,0.00,Wunderground v.1.15,2013-07-12 05:25:00,
2013-07-11 23:30:00,60.7,37.5,29.73,SSE,168,0.0,2.0,42,0.00,,,0.00,Wunderground v.1.15,2013-07-12 05:30:00,
2013-07-11 23:40:00,61.0,35.8,29.73,SSE,165,0.0,2.0,39,0.00,,,0.00,Wunderground v.1.15,2013-07-12 05:40:00,
2013-07-11 23:45:00,61.2,36.0,29.73,SE,143,0.0,2.0,39,0.00,,,0.00,Wunderground v.1.15,2013-07-12 05:45:00,
2013-07-11 23:50:00,61.6,35.7,29.73,SE,138,1.0,1.0,38,0.00,,,0.00,Wunderground v.1.15,2013-07-12 05:50:00,
2013-07-11 23:55:00,61.5,36.3,29.73,ESE,123,1.0,2.0,39,0.00,,,0.00,Wunderground v.1.15,2013-07-12 05:55:00,